Terminal Aerodrome Forecast
Issued by NWS Boston, MA

Home | Current Version | Previous Version | Text Only | Print | Product List | Glossary On
Versions: 1 2 3 4 5 6 7 8 9 10 11 12 13 14 15 16 17 18 19 20 21 22 23 24 25 26 27 28 29 30 31 32 33 34 35 36 37 38
000
FTUS41 KBOX 300810 AAA
TAFPVD
TAF AMD
KPVD 300810Z 3008/0106 03008KT P6SM OVC008
     FM301200 03004KT 3SM BR OVC008
     FM301600 04007KT P6SM OVC025
     FM301800 05008KT P6SM BKN050
     FM302100 06008KT P6SM OVC025
     FM010300 02008KT 3SM BR BKN008=

USA.gov is the U.S. government's official web portal to all federal, state and local government web resources and services.